Time;durP1;ratioP1;P1;durP2;ratioP2;P2;SDS_P1;SDS_P2;PMS_P1;PMS_P2;Temp;Humidity;BMP_temperature;BMP_pressure;BME280_temperature;BME280_humidity;BME280_pressure;Samples;Min_cycle;Max_cycle;Signal;HPM_P1;HPM_P2
2022/04/21 00:00:48;;;;;;;;;;;7.50;73.60;;;6.36;nan;95943.19;4185722;33;20003;-84
2022/04/21 00:03:16;;;;;;;;;;;7.50;73.60;;;6.36;nan;95943.19;4185225;33;20130;-84
2022/04/21 00:05:46;;;;;;;;;;;7.50;73.40;;;6.36;nan;95946.75;4184805;33;20125;-84
2022/04/21 00:08:17;;;;;;;;;;;7.50;73.50;;;6.34;nan;95948.06;4207531;33;19910;-84
2022/04/21 00:10:45;;;;;;;;;;;7.50;73.40;;;6.35;nan;95945.09;4207928;33;19903;-84
2022/04/21 00:13:14;;;;;;;;;;;7.50;73.70;;;6.36;nan;95941.31;4184968;33;19961;-84
2022/04/21 00:15:42;;;;;;;;;;;7.50;73.50;;;6.34;nan;95937.19;4207941;33;19903;-84
2022/04/21 00:18:11;;;;;;;;;;;7.50;73.50;;;6.35;nan;95939.66;4184364;33;19902;-84
2022/04/21 00:20:39;;;;;;;;;;;7.50;73.50;;;6.33;nan;95941.81;4208232;33;20163;-85
2022/04/21 00:23:26;;;;;;;;;;;7.40;73.40;;;6.35;nan;95945.09;4208026;33;19909;-85
2022/04/21 00:25:55;;;;;;;;;;;7.50;73.40;;;6.34;nan;95954.31;4184409;33;19902;-83
2022/04/21 00:28:24;;;;;;;;;;;7.50;73.50;;;6.35;nan;95961.41;4184573;33;20140;-85
2022/04/21 00:30:52;;;;;;;;;;;7.50;73.30;;;6.35;nan;95960.56;4208554;33;19902;-85
2022/04/21 00:33:22;;;;;;;;;;;7.40;73.30;;;6.34;nan;95959.75;4208763;33;19910;-84
2022/04/21 00:35:51;;;;;;;;;;;7.50;73.60;;;6.33;nan;95958.13;4185685;33;20197;-85
2022/04/21 00:38:21;;;;;;;;;;;7.50;73.50;;;6.33;nan;95958.13;4208506;33;19996;-84
2022/04/21 00:40:50;;;;;;;;;;;7.40;73.30;;;6.34;nan;95959.75;4185634;33;19909;-84
2022/04/21 00:43:19;;;;;;;;;;;7.50;73.40;;;6.34;nan;95958.94;4185598;33;19910;-85
2022/04/21 00:45:49;;;;;;;;;;;7.40;73.10;;;6.34;nan;95970.66;4185303;33;19909;-85
2022/04/21 00:48:18;;;;;;;;;;;7.40;74.00;;;6.35;nan;95971.44;4208036;33;20150;-85
2022/04/21 00:50:47;;;;;;;;;;;7.50;73.30;;;6.34;nan;95969.81;4185306;33;19909;-84
2022/04/21 00:53:15;;;;;;;;;;;7.40;73.40;;;6.34;nan;95978.81;4185525;33;19902;-84
2022/04/21 00:55:45;;;;;;;;;;;7.40;73.40;;;6.32;nan;95972.78;4208465;33;19910;-84
2022/04/21 00:58:13;;;;;;;;;;;7.40;73.40;;;6.34;nan;95973.34;4184897;33;20154;-85
2022/04/21 01:00:42;;;;;;;;;;;7.40;73.70;;;6.33;nan;95968.16;4208217;33;20062;-85
2022/04/21 01:03:12;;;;;;;;;;;7.40;73.60;;;6.33;nan;95973.59;4208260;33;20025;-85
2022/04/21 01:05:40;;;;;;;;;;;7.40;73.40;;;6.32;nan;95975.50;4207649;33;20126;-84
2022/04/21 01:08:09;;;;;;;;;;;7.40;73.30;;;6.32;nan;95972.78;4185048;33;20069;-84
2022/04/21 01:10:39;;;;;;;;;;;7.40;73.40;;;6.32;nan;95978.22;4187782;33;20005;-85
2022/04/21 01:13:11;;;;;;;;;;;7.40;73.20;;;6.33;nan;95974.44;4187646;33;20213;-84
2022/04/21 01:15:40;;;;;;;;;;;7.40;73.30;;;6.33;nan;95977.16;4187644;33;20136;-84
2022/04/21 01:18:09;;;;;;;;;;;7.40;73.40;;;6.32;nan;95978.22;4187256;33;20314;-85
2022/04/21 01:20:39;;;;;;;;;;;7.40;73.50;;;6.32;nan;95972.78;4187261;33;19903;-84
2022/04/21 01:23:08;;;;;;;;;;;7.40;73.50;;;6.33;nan;95974.44;4209322;33;23162;-84
2022/04/21 01:25:40;;;;;;;;;;;7.40;73.40;;;6.33;nan;95981.75;4209686;33;19917;-84
2022/04/21 01:28:09;;;;;;;;;;;7.40;73.60;;;6.32;nan;95986.38;4209518;33;19909;-85
2022/04/21 01:30:38;;;;;;;;;;;7.40;73.60;;;6.33;nan;95981.75;4187385;33;20283;-84
2022/04/21 01:33:07;;;;;;;;;;;7.40;73.70;;;6.33;nan;95982.59;4187379;33;20017;-85
2022/04/21 01:35:35;;;;;;;;;;;7.40;73.60;;;6.32;nan;95980.94;4187563;33;20137;-84
2022/04/21 01:41:10;;;;;;;;;;;7.40;73.20;;;6.32;nan;95989.09;4187359;33;20129;-85
2022/04/21 01:43:39;;;;;;;;;;;7.40;73.40;;;6.29;nan;95976.84;4210692;33;20129;-84
2022/04/21 01:46:09;;;;;;;;;;;7.40;73.40;;;6.32;nan;95978.22;4186802;33;19910;-85
2022/04/21 01:48:38;;;;;;;;;;;7.40;73.50;;;6.31;nan;95971.13;4187480;33;20168;-84
2022/04/21 01:51:06;;;;;;;;;;;7.40;73.60;;;6.32;nan;95974.69;4187560;33;20000;-84
2022/04/21 01:53:36;;;;;;;;;;;7.40;73.80;;;6.31;nan;95976.56;4187375;33;19910;-84
2022/04/21 01:56:06;;;;;;;;;;;7.40;73.80;;;6.32;nan;95975.50;4210146;33;19929;-85
2022/04/21 01:58:34;;;;;;;;;;;7.40;73.50;;;6.31;nan;95976.56;4210526;33;20120;-84
2022/04/21 02:01:03;;;;;;;;;;;7.40;73.30;;;6.30;nan;95969.47;4210614;33;19909;-84
2022/04/21 02:03:32;;;;;;;;;;;7.40;73.60;;;6.31;nan;95968.41;4187319;33;19909;-84
2022/04/21 02:06:00;;;;;;;;;;;7.40;73.50;;;6.32;nan;95967.34;4186767;33;20371;-84
2022/04/21 02:08:29;;;;;;;;;;;7.40;73.80;;;6.32;nan;95966.53;4187017;33;20109;-85
2022/04/21 02:10:59;;;;;;;;;;;7.40;73.80;;;6.29;nan;95962.41;4186390;33;19902;-85
2022/04/21 02:13:28;;;;;;;;;;;7.40;73.70;;;6.31;nan;95967.59;4209818;33;19902;-84
2022/04/21 02:15:56;;;;;;;;;;;7.40;73.60;;;6.31;nan;95965.69;4210081;33;20398;-84
2022/04/21 02:18:24;;;;;;;;;;;7.40;73.70;;;6.31;nan;95965.69;4186958;33;19902;-85
2022/04/21 02:20:53;;;;;;;;;;;7.40;73.60;;;6.30;nan;95964.03;4209367;33;19930;-85
2022/04/21 02:23:22;;;;;;;;;;;7.40;73.50;;;6.31;nan;95970.31;4206535;33;20000;-85
2022/04/21 02:25:51;;;;;;;;;;;7.40;73.40;;;6.32;nan;95969.25;4181538;33;20215;-85
2022/04/21 02:28:22;;;;;;;;;;;7.40;73.20;;;6.31;nan;95976.56;4181859;33;20053;-85
2022/04/21 02:30:50;;;;;;;;;;;7.40;72.90;;;6.29;nan;95974.09;4182143;33;19903;-85
2022/04/21 02:33:20;;;;;;;;;;;7.40;72.80;;;6.28;nan;95966.19;4182255;33;19976;-84
2022/04/21 02:35:49;;;;;;;;;;;7.40;73.00;;;6.31;nan;95975.75;4182222;33;20060;-85
2022/04/21 02:38:18;;;;;;;;;;;7.40;72.90;;;6.29;nan;95970.56;4205044;33;19965;-85
2022/04/21 02:40:46;;;;;;;;;;;7.40;73.00;;;6.30;nan;95974.91;4182105;33;20210;-84
2022/04/21 02:43:14;;;;;;;;;;;7.40;73.20;;;6.28;nan;95972.47;4182054;33;19907;-84
2022/04/21 02:45:44;;;;;;;;;;;7.40;73.10;;;6.29;nan;95973.28;4205434;33;19910;-84
2022/04/21 02:48:13;;;;;;;;;;;7.40;73.10;;;6.29;nan;95973.28;4204729;33;19903;-84
2022/04/21 02:50:42;;;;;;;;;;;7.40;73.00;;;6.29;nan;95973.28;4181882;33;19902;-84
2022/04/21 02:53:10;;;;;;;;;;;7.40;73.20;;;6.28;nan;95982.50;4205082;33;19917;-84
2022/04/21 02:58:28;;;;;;;;;;;7.30;73.40;;;6.28;nan;95979.78;4205073;33;20159;-84
2022/04/21 03:00:58;;;;;;;;;;;7.40;73.50;;;6.27;nan;95978.13;4181990;33;19902;-85
2022/04/21 03:03:26;;;;;;;;;;;7.40;73.50;;;6.28;nan;95985.22;4204102;33;20383;-84
2022/04/21 03:05:55;;;;;;;;;;;7.40;73.40;;;6.27;nan;95983.56;4180572;33;20064;-84
2022/04/21 03:08:23;;;;;;;;;;;7.40;73.30;;;6.27;nan;95986.28;4203704;33;19996;-84
2022/04/21 03:10:52;;;;;;;;;;;7.40;73.20;;;6.24;nan;95982.19;4180886;33;19903;-85
2022/04/21 03:13:20;;;;;;;;;;;7.30;73.20;;;6.28;nan;95987.94;4180775;33;19903;-85
2022/04/21 03:15:49;;;;;;;;;;;7.30;73.00;;;6.27;nan;95984.41;4204850;33;19903;-84
2022/04/21 03:18:19;;;;;;;;;;;7.40;73.10;;;6.26;nan;95980.03;4181280;33;19902;-84
2022/04/21 03:26:19;;;;;;;;;;;7.40;72.90;;;6.26;nan;95990.09;4181285;33;19910;-84
2022/04/21 03:28:48;;;;;;;;;;;7.40;72.80;;;6.26;nan;95985.47;4181406;33;19926;-85
2022/04/21 03:31:16;;;;;;;;;;;7.40;72.60;;;6.26;nan;95988.19;4181463;33;20054;-85
2022/04/21 03:33:48;;;;;;;;;;;7.40;72.60;;;6.26;nan;95995.53;4204785;33;20136;-85
2022/04/21 03:36:16;;;;;;;;;;;7.40;72.70;;;6.25;nan;95993.88;4181157;33;20129;-84
2022/04/21 03:38:45;;;;;;;;;;;7.40;72.70;;;6.26;nan;95995.53;4181314;33;19903;-84
2022/04/21 03:41:13;;;;;;;;;;;7.40;72.70;;;6.26;nan;95990.09;4181641;33;19939;-84
2022/04/21 03:43:42;;;;;;;;;;;7.40;72.60;;;6.25;nan;95985.72;4181401;33;20338;-84
2022/04/21 03:46:10;;;;;;;;;;;7.40;72.70;;;6.27;nan;95989.00;4181045;33;19910;-84
2022/04/21 03:48:39;;;;;;;;;;;7.40;72.50;;;6.25;nan;95991.97;4181222;33;19903;-85
2022/04/21 03:51:10;;;;;;;;;;;7.40;72.50;;;6.26;nan;95985.47;4181495;33;20646;-85
2022/04/21 03:53:38;;;;;;;;;;;7.40;72.50;;;6.27;nan;95987.13;4185876;33;19902;-85
2022/04/21 03:56:07;;;;;;;;;;;7.40;72.30;;;6.27;nan;95984.41;4185418;33;20115;-85
2022/04/21 03:58:35;;;;;;;;;;;7.40;72.20;;;6.28;nan;95987.94;4208593;33;20109;-85
2022/04/21 04:01:04;;;;;;;;;;;7.40;72.20;;;6.31;nan;95983.91;4208093;33;19902;-85
2022/04/21 04:03:32;;;;;;;;;;;7.40;72.20;;;6.28;nan;95977.06;4184908;33;19902;-85
2022/04/21 04:06:01;;;;;;;;;;;7.40;72.00;;;6.28;nan;95982.50;4184554;33;19903;-85
2022/04/21 04:11:17;;;;;;;;;;;7.40;71.90;;;6.33;nan;95981.75;4184850;33;19902;-84
2022/04/21 04:13:45;;;;;;;;;;;7.40;71.90;;;6.34;nan;95992.38;4184859;33;20086;-84
2022/04/21 04:16:14;;;;;;;;;;;7.40;71.80;;;6.36;nan;95987.53;4183967;33;20388;-85
2022/04/21 04:18:42;;;;;;;;;;;7.40;71.90;;;6.38;nan;95984.56;4208004;33;19917;-85
2022/04/21 04:21:12;;;;;;;;;;;7.50;72.30;;;6.39;nan;95988.91;4208911;33;19902;-84
2022/04/21 04:23:42;;;;;;;;;;;7.50;73.10;;;6.40;nan;95983.22;4185923;33;19925;-85
2022/04/21 04:26:10;;;;;;;;;;;7.50;73.20;;;6.39;nan;95978.84;4208545;33;20168;-84
2022/04/21 04:28:39;;;;;;;;;;;7.50;73.60;;;6.43;nan;95985.44;4208871;33;19917;-85
2022/04/21 04:31:08;;;;;;;;;;;7.60;73.70;;;6.44;nan;95981.66;4208899;33;20153;-85
2022/04/21 04:33:36;;;;;;;;;;;7.60;73.60;;;6.43;nan;95974.56;4185917;33;19905;-84
2022/04/21 04:36:05;;;;;;;;;;;7.60;73.60;;;6.46;nan;95973.25;4185341;33;20187;-84
2022/04/21 04:38:33;;;;;;;;;;;7.60;73.70;;;6.46;nan;95978.69;4185783;33;20081;-83
2022/04/21 04:42:16;;;;;;;;;;;7.60;73.70;;;6.45;nan;95975.16;4185839;33;20225;-85
2022/04/21 04:43:51;;;;;;;;;;;7.60;73.80;;;6.47;nan;95968.66;4186650;33;20042;-84
2022/04/21 04:46:38;;;;;;;;;;;7.60;73.70;;;6.49;nan;95974.66;4210812;33;19909;-84
2022/04/21 04:49:08;;;;;;;;;;;7.60;73.70;;;6.49;nan;95972.75;4211325;33;20209;-84
2022/04/21 04:51:38;;;;;;;;;;;7.60;73.70;;;6.53;nan;95965.75;4188142;33;20082;-84
2022/04/21 04:54:06;;;;;;;;;;;7.70;73.70;;;6.56;nan;95972.56;4183301;33;19903;-85
2022/04/21 04:56:36;;;;;;;;;;;7.70;73.60;;;6.58;nan;95967.72;4160073;33;19910;-85
2022/04/21 04:59:05;;;;;;;;;;;7.70;73.60;;;6.60;nan;95973.72;4160605;33;19925;-84
2022/04/21 05:01:39;;;;;;;;;;;7.70;73.50;;;6.64;nan;95960.44;4160449;33;19902;-84
2022/04/21 05:04:10;;;;;;;;;;;7.80;73.40;;;6.68;nan;95970.56;4160342;33;20013;-84
2022/04/21 05:06:39;;;;;;;;;;;7.80;73.20;;;6.72;nan;95971.72;4159923;33;19903;-84
2022/04/21 05:09:09;;;;;;;;;;;7.90;73.20;;;6.77;nan;95970.16;4160155;33;19909;-84
2022/04/21 05:11:39;;;;;;;;;;;7.90;72.90;;;6.83;nan;95961.78;4160315;33;20151;-84
2022/04/21 05:14:08;;;;;;;;;;;7.90;72.60;;;6.93;nan;95963.81;4183245;33;19923;-84
2022/04/21 05:16:37;;;;;;;;;;;8.10;72.50;;;7.12;nan;95960.78;4159872;33;20116;-85
2022/04/21 05:19:07;;;;;;;;;;;8.20;72.00;;;7.25;nan;95952.22;4160013;33;20303;-85
2022/04/21 05:21:36;;;;;;;;;;;8.30;71.60;;;7.43;nan;95961.09;4160220;33;19903;-84
2022/04/21 05:24:06;;;;;;;;;;;8.50;71.20;;;7.54;nan;95968.31;4183007;33;20342;-84
2022/04/21 05:26:36;;;;;;;;;;;8.50;70.90;;;7.56;nan;95955.22;4182455;33;19910;-84
2022/04/21 05:30:55;;;;;;;;;;;8.60;70.50;;;7.62;nan;95956.09;4159830;33;20011;-84
2022/04/21 05:31:56;;;;;;;;;;;8.70;70.30;;;7.63;nan;95957.75;4159994;33;19913;-85
2022/04/21 05:34:26;;;;;;;;;;;8.70;70.20;;;7.64;nan;95957.50;4160013;33;19903;-85
2022/04/21 05:36:55;;;;;;;;;;;8.70;70.20;;;7.63;nan;95955.88;4159381;33;20099;-85
2022/04/21 05:39:24;;;;;;;;;;;8.70;70.00;;;7.63;nan;95955.88;4183004;33;19909;-85
2022/04/21 05:41:53;;;;;;;;;;;8.70;70.00;;;7.64;nan;95954.78;4159948;33;19925;-85
2022/04/21 05:44:24;;;;;;;;;;;8.70;70.00;;;7.62;nan;95956.94;4182946;33;20214;-86
2022/04/21 05:46:53;;;;;;;;;;;8.80;69.90;;;7.63;nan;95964.03;4159413;33;20104;-84
2022/04/21 05:49:23;;;;;;;;;;;8.80;70.00;;;7.63;nan;95964.03;4182407;33;19910;-85
2022/04/21 05:51:53;;;;;;;;;;;8.80;69.90;;;7.64;nan;95964.84;4182624;33;20184;-85
2022/04/21 05:54:22;;;;;;;;;;;8.80;69.90;;;7.64;nan;95964.84;4159552;33;20217;-84
2022/04/21 05:56:51;;;;;;;;;;;8.80;69.90;;;7.64;nan;95960.25;4181913;33;20161;-84
2022/04/21 05:59:20;;;;;;;;;;;8.80;69.80;;;7.64;nan;95962.97;4159418;33;19917;-87
2022/04/21 06:01:49;;;;;;;;;;;8.80;69.80;;;7.65;nan;95959.16;4159725;33;20236;-86
2022/04/21 06:04:21;;;;;;;;;;;8.80;69.80;;;7.68;nan;95960.53;4182481;33;20099;-86
2022/04/21 06:06:49;;;;;;;;;;;8.80;69.80;;;7.68;nan;95958.63;4206309;33;20036;-86
2022/04/21 06:09:19;;;;;;;;;;;8.80;69.70;;;7.71;nan;95956.47;4159531;33;19907;-86
2022/04/21 06:11:49;;;;;;;;;;;8.80;69.80;;;7.71;nan;95949.13;4183819;33;20125;-86
2022/04/21 06:14:17;;;;;;;;;;;8.80;69.70;;;7.75;nan;95954.88;4210727;33;20053;-86
2022/04/21 06:16:55;;;;;;;;;;;8.80;69.60;;;7.76;nan;95951.06;4234304;33;19937;-86
2022/04/21 06:19:32;;;;;;;;;;;8.90;69.70;;;7.77;nan;95956.25;4210014;33;19903;-86
2022/04/21 06:22:16;;;;;;;;;;;8.90;69.60;;;7.81;nan;95948.41;4187463;33;19983;-86
2022/04/21 06:24:44;;;;;;;;;;;8.90;69.50;;;7.82;nan;95953.59;4207481;33;19957;-86
2022/04/21 06:27:17;;;;;;;;;;;8.90;69.50;;;7.85;nan;95959.59;4186474;33;20205;-85
2022/04/21 06:29:54;;;;;;;;;;;8.90;70.30;;;7.88;nan;95954.44;4187374;33;19902;-86
2022/04/21 06:32:30;;;;;;;;;;;9.00;69.40;;;7.90;nan;95957.75;4187894;33;19941;-86
2022/04/21 06:35:26;;;;;;;;;;;9.00;70.10;;;7.93;nan;95956.41;4187069;33;20156;-85
2022/04/21 06:38:15;;;;;;;;;;;9.00;69.20;;;7.93;nan;95953.66;4234999;33;20104;-85
2022/04/21 06:41:09;;;;;;;;;;;9.00;69.00;;;7.94;nan;95952.59;4210908;33;20143;-85
2022/04/21 06:49:34;;;;;;;;;;;9.00;69.00;;;7.99;nan;95952.63;4132362;34;20169;-85
2022/04/21 06:52:16;;;;;;;;;;;9.10;69.10;;;7.99;nan;95955.38;4188891;33;20052;-86
2022/04/21 06:54:45;;;;;;;;;;;9.10;69.00;;;7.99;nan;95956.19;4187046;33;19909;-85
2022/04/21 06:57:13;;;;;;;;;;;9.10;68.90;;;8.01;nan;95958.63;4186233;33;19985;-86
2022/04/21 06:59:46;;;;;;;;;;;9.10;69.00;;;8.03;nan;95955.66;4186624;33;19902;-86
2022/04/21 07:02:38;;;;;;;;;;;9.10;69.00;;;8.02;nan;95959.47;4187199;33;20093;-86
2022/04/21 07:05:17;;;;;;;;;;;9.10;69.00;;;8.04;nan;95951.84;4210024;33;20150;-86
2022/04/21 07:07:49;;;;;;;;;;;9.10;69.00;;;8.03;nan;95950.22;4233467;33;19902;-86
2022/04/21 07:10:20;;;;;;;;;;;9.10;68.90;;;8.03;nan;95956.47;4209711;33;20089;-86
2022/04/21 07:12:49;;;;;;;;;;;9.10;68.90;;;8.04;nan;95965.50;4209756;33;20412;-84
2022/04/21 07:15:18;;;;;;;;;;;9.10;68.90;;;8.06;nan;95960.59;4187045;33;20163;-84
2022/04/21 07:17:50;;;;;;;;;;;9.10;69.00;;;8.04;nan;95966.28;4186301;33;20446;-86
2022/04/21 07:20:56;;;;;;;;;;;9.10;69.00;;;8.05;nan;95965.22;4234156;33;20212;-85
2022/04/21 07:23:26;;;;;;;;;;;9.10;69.10;;;8.06;nan;95968.78;4159369;33;20218;-85
2022/04/21 07:25:55;;;;;;;;;;;9.10;69.00;;;8.06;nan;95960.59;4181995;33;20117;-86
2022/04/21 07:28:33;;;;;;;;;;;9.10;69.00;;;8.06;nan;95963.34;4182216;33;20169;-85
2022/04/21 07:31:19;;;;;;;;;;;9.10;69.00;;;8.07;nan;95962.22;4159095;33;19916;-85
2022/04/21 07:33:51;;;;;;;;;;;9.10;69.00;;;8.10;nan;95968.00;4184922;33;19902;-85
2022/04/21 07:36:21;;;;;;;;;;;9.10;69.00;;;8.11;nan;95963.34;4209101;33;19960;-85
2022/04/21 07:38:50;;;;;;;;;;;9.10;69.00;;;8.11;nan;95953.28;4185910;33;20123;-85
2022/04/21 07:41:21;;;;;;;;;;;9.10;69.00;;;8.13;nan;95950.28;4209419;33;20315;-85
2022/04/21 07:43:49;;;;;;;;;;;9.10;69.00;;;8.18;nan;95958.50;4186299;33;19902;-86
2022/04/21 07:46:18;;;;;;;;;;;9.10;69.00;;;8.19;nan;95949.25;4185686;33;20076;-86
2022/04/21 07:51:39;;;;;;;;;;;9.20;68.80;;;8.23;nan;95953.09;4186258;33;19952;-85
2022/04/21 07:54:14;;;;;;;;;;;9.20;68.80;;;8.20;nan;95948.16;4186288;33;19909;-86
2022/04/21 07:56:44;;;;;;;;;;;9.20;68.70;;;8.16;nan;95949.78;4208999;33;19997;-85
2022/04/21 07:59:16;;;;;;;;;;;9.20;68.70;;;8.06;nan;95941.53;4233679;33;20121;-85
2022/04/21 08:02:11;;;;;;;;;;;9.20;68.80;;;7.95;nan;95955.03;4209427;33;19909;-86
2022/04/21 08:04:43;;;;;;;;;;;9.00;69.90;;;7.85;nan;95944.06;4224296;33;19909;-85
2022/04/21 08:07:13;;;;;;;;;;;9.00;69.30;;;7.76;nan;95954.59;4185615;33;20063;-85
2022/04/21 08:09:58;;;;;;;;;;;8.90;69.60;;;7.67;nan;95951.56;4185885;33;19978;-85
2022/04/21 08:12:30;;;;;;;;;;;8.80;69.90;;;7.61;nan;95949.84;4209491;33;20122;-85
2022/04/21 08:14:59;;;;;;;;;;;8.80;70.30;;;7.58;nan;95947.63;4186267;33;20019;-85
2022/04/21 08:17:33;;;;;;;;;;;8.70;70.60;;;7.57;nan;95943.25;4186370;33;20354;-85
2022/04/21 08:20:05;;;;;;;;;;;8.70;70.70;;;7.61;nan;95936.22;4188529;33;20005;-85
2022/04/21 08:23:33;;;;;;;;;;;8.60;70.80;;;7.64;nan;95949.34;4213057;33;20149;-85
2022/04/21 08:34:28;;;;;;;;;;;8.70;71.00;;;7.58;nan;95944.09;4211282;33;19909;-86
2022/04/21 08:37:08;;;;;;;;;;;8.70;70.80;;;7.56;nan;95952.50;4183278;33;19902;-85
2022/04/21 08:39:38;;;;;;;;;;;8.60;70.70;;;7.53;nan;95942.16;4160801;33;20044;-85
2022/04/21 08:42:10;;;;;;;;;;;8.60;70.80;;;7.48;nan;95950.25;4204607;33;20149;-85
2022/04/21 08:44:43;;;;;;;;;;;8.60;70.90;;;7.44;nan;95960.84;4211389;33;19937;-86
2022/04/21 08:47:14;;;;;;;;;;;8.60;71.10;;;7.40;nan;95953.47;4187740;33;20168;-85
2022/04/21 08:49:44;;;;;;;;;;;8.50;71.20;;;7.36;nan;95955.84;4188070;33;19903;-85
2022/04/21 08:52:14;;;;;;;;;;;8.50;71.30;;;7.32;nan;95950.09;4211404;33;20151;-84
2022/04/21 08:54:44;;;;;;;;;;;8.50;71.60;;;7.31;nan;95962.06;4188098;33;19902;-85
2022/04/21 08:57:15;;;;;;;;;;;8.40;71.50;;;7.27;nan;95944.63;4188094;33;19902;-85
2022/04/21 08:59:44;;;;;;;;;;;8.40;71.70;;;7.25;nan;95952.22;4188125;33;19902;-85
2022/04/21 09:02:13;;;;;;;;;;;8.40;71.80;;;7.21;nan;95946.47;4187968;33;20068;-86
2022/04/21 09:04:42;;;;;;;;;;;8.40;71.80;;;7.23;nan;95951.63;4188234;33;20058;-85
2022/04/21 09:07:20;;;;;;;;;;;8.30;72.00;;;7.24;nan;95945.13;4187579;33;20389;-85
2022/04/21 09:10:12;;;;;;;;;;;8.30;72.00;;;7.21;nan;95951.06;4188107;33;20218;-85
2022/04/21 09:16:25;;;;;;;;;;;8.30;72.10;;;7.23;nan;95948.91;4159816;33;20097;-85
2022/04/21 09:20:10;;;;;;;;;;;8.30;72.10;;;7.24;nan;95938.84;4156294;33;19925;-85
2022/04/21 09:33:30;;;;;;;;;;;8.40;72.10;;;7.27;nan;95927.44;4154210;33;19902;-85
2022/04/21 09:36:01;;;;;;;;;;;8.40;72.00;;;7.28;nan;95927.19;4159745;33;20019;-86
2022/04/21 09:42:13;;;;;;;;;;;8.40;72.00;;;7.25;nan;95927.72;4182941;33;19910;-85
2022/04/21 09:47:34;;;;;;;;;;;8.40;72.00;;;7.26;nan;95926.63;4210321;33;19909;-86
2022/04/21 09:50:27;;;;;;;;;;;8.40;71.90;;;7.26;nan;95926.63;4187541;33;19902;-87
2022/04/21 09:52:56;;;;;;;;;;;8.40;72.00;;;7.26;nan;95931.25;4187696;33;20334;-87
2022/04/21 10:00:38;;;;;;;;;;;8.40;72.00;;;7.24;nan;95919.78;4209164;33;20087;-85
2022/04/21 10:07:13;;;;;;;;;;;8.40;72.10;;;7.22;nan;95911.88;4200811;33;19910;-86
2022/04/21 10:09:42;;;;;;;;;;;8.30;72.10;;;7.21;nan;95908.34;4187887;33;19909;-86
2022/04/21 10:12:41;;;;;;;;;;;8.30;72.20;;;7.24;nan;95917.06;4236516;33;20018;-86
2022/04/21 10:15:11;;;;;;;;;;;8.30;72.20;;;7.22;nan;95914.59;4211046;33;19902;-86
2022/04/21 10:17:43;;;;;;;;;;;8.30;72.10;;;7.25;nan;95905.94;4186897;33;19902;-86
2022/04/21 10:22:07;;;;;;;;;;;8.30;72.10;;;7.26;nan;95906.72;4187602;33;19909;-86
2022/04/21 10:24:41;;;;;;;;;;;8.40;72.10;;;7.28;nan;95899.97;4199450;33;20016;-85
2022/04/21 10:28:19;;;;;;;;;;;8.40;72.00;;;7.29;nan;95890.72;4209786;33;19902;-85
2022/04/21 10:30:50;;;;;;;;;;;8.40;72.00;;;7.29;nan;95898.91;4186045;33;19909;-85
2022/04/21 10:33:21;;;;;;;;;;;8.40;71.90;;;7.29;nan;95889.88;4210327;33;20004;-86
2022/04/21 10:35:52;;;;;;;;;;;8.40;71.90;;;7.30;nan;95894.25;4186836;33;19902;-85
2022/04/21 10:39:04;;;;;;;;;;;8.40;71.90;;;7.29;nan;95888.00;4186247;33;19925;-86
2022/04/21 10:41:39;;;;;;;;;;;8.40;71.90;;;7.29;nan;95879.00;4185490;33;19909;-85
2022/04/21 10:44:17;;;;;;;;;;;8.40;71.90;;;7.30;nan;95888.81;4210201;33;19902;-85
2022/04/21 10:46:48;;;;;;;;;;;8.40;71.90;;;7.29;nan;95874.41;4186409;33;20147;-86
2022/04/21 10:49:53;;;;;;;;;;;8.40;71.90;;;7.29;nan;95877.13;4186529;33;19903;-86
2022/04/21 10:58:49;;;;;;;;;;;8.40;71.90;;;7.27;nan;95883.88;4209179;33;20218;-86
2022/04/21 11:01:23;;;;;;;;;;;8.40;72.00;;;7.26;nan;95877.63;4209614;33;19902;-85
2022/04/21 11:04:26;;;;;;;;;;;8.40;72.00;;;7.27;nan;95881.16;4186623;33;19909;-86
2022/04/21 11:07:10;;;;;;;;;;;8.40;72.10;;;7.25;nan;95875.97;4182960;33;19902;-86
2022/04/21 11:09:44;;;;;;;;;;;8.40;72.10;;;7.24;nan;95879.78;4209894;33;19902;-86
2022/04/21 11:12:16;;;;;;;;;;;8.40;72.10;;;7.23;nan;95878.13;4186529;33;19925;-87
2022/04/21 11:14:45;;;;;;;;;;;8.30;72.20;;;7.22;nan;95876.47;4186822;33;20180;-84
2022/04/21 11:17:13;;;;;;;;;;;8.30;72.30;;;7.24;nan;95876.22;4209256;33;19902;-85
2022/04/21 11:19:51;;;;;;;;;;;8.40;72.30;;;7.23;nan;95872.69;4209521;33;19910;-86
2022/04/21 11:22:40;;;;;;;;;;;8.30;72.30;;;7.22;nan;95869.16;4159014;33;19909;-86
2022/04/21 11:25:09;;;;;;;;;;;8.40;72.20;;;7.23;nan;95861.78;4162098;33;20249;-86
2022/04/21 11:27:45;;;;;;;;;;;8.40;72.20;;;7.24;nan;95865.31;4185659;33;19903;-86
2022/04/21 11:30:14;;;;;;;;;;;8.40;72.20;;;7.24;nan;95868.88;4233979;33;20008;-86
2022/04/21 11:32:51;;;;;;;;;;;8.40;72.20;;;7.24;nan;95859.88;4186274;33;20046;-86
2022/04/21 11:35:21;;;;;;;;;;;8.40;72.20;;;7.21;nan;95853.91;4186536;33;19902;-86
2022/04/21 11:38:00;;;;;;;;;;;8.40;72.30;;;7.24;nan;95860.72;4185774;33;19909;-86
2022/04/21 11:40:35;;;;;;;;;;;8.40;72.30;;;7.25;nan;95858.81;4186296;33;19909;-86
2022/04/21 11:43:06;;;;;;;;;;;8.40;72.30;;;7.23;nan;95853.63;4186084;33;19912;-86
2022/04/21 11:45:36;;;;;;;;;;;8.40;72.30;;;7.22;nan;95851.97;4186232;33;19975;-86
2022/04/21 11:48:15;;;;;;;;;;;8.40;72.20;;;7.24;nan;95851.72;4185716;33;20256;-86
2022/04/21 11:50:47;;;;;;;;;;;8.30;72.20;;;7.23;nan;95845.47;4186150;33;20066;-86
2022/04/21 11:53:18;;;;;;;;;;;8.40;72.20;;;7.24;nan;95835.38;4185817;33;19994;-86
2022/04/21 11:55:47;;;;;;;;;;;8.40;72.30;;;7.23;nan;95834.56;4186195;33;19903;-86
2022/04/21 11:58:28;;;;;;;;;;;8.40;72.20;;;7.23;nan;95818.22;4209103;33;20095;-85
2022/04/21 12:06:40;;;;;;;;;;;8.40;72.30;;;7.23;nan;95829.13;4185531;33;20256;-86
2022/04/21 12:09:15;;;;;;;;;;;8.40;72.30;;;7.22;nan;95822.03;4185471;33;19909;-86
2022/04/21 12:11:43;;;;;;;;;;;8.40;72.30;;;7.22;nan;95828.31;4209214;33;20034;-86
2022/04/21 12:14:14;;;;;;;;;;;8.30;72.30;;;7.21;nan;95825.84;4185978;33;19925;-86
2022/04/21 12:16:45;;;;;;;;;;;8.40;72.30;;;7.22;nan;95822.03;4208751;33;19917;-87
2022/04/21 12:19:18;;;;;;;;;;;8.30;72.30;;;7.21;nan;95814.94;4186045;33;20006;-86
2022/04/21 12:21:56;;;;;;;;;;;8.30;72.40;;;7.23;nan;95810.06;4186255;33;20057;-87
2022/04/21 12:24:32;;;;;;;;;;;8.30;72.30;;;7.23;nan;95818.22;4185953;33;20081;-86
2022/04/21 12:27:01;;;;;;;;;;;8.30;72.30;;;7.22;nan;95805.69;4208940;33;20012;-87
2022/04/21 12:29:31;;;;;;;;;;;8.40;72.40;;;7.22;nan;95801.09;4208895;33;19934;-86
2022/04/21 12:32:03;;;;;;;;;;;8.40;72.40;;;7.21;nan;95801.34;4186071;33;20044;-87
2022/04/21 12:34:33;;;;;;;;;;;8.30;72.40;;;7.21;nan;95799.44;4185745;33;19929;-87
2022/04/21 12:37:03;;;;;;;;;;;8.30;72.30;;;7.22;nan;95801.09;4208564;33;19965;-86
2022/04/21 12:39:33;;;;;;;;;;;8.40;72.40;;;7.23;nan;95804.63;4208960;33;20137;-87
2022/04/21 12:42:03;;;;;;;;;;;8.30;72.40;;;7.24;nan;95800.81;4185774;33;19902;-87
2022/04/21 12:44:35;;;;;;;;;;;8.40;72.30;;;7.24;nan;95792.66;4208071;33;20743;-87
2022/04/21 12:47:06;;;;;;;;;;;8.40;72.30;;;7.23;nan;95799.19;4180363;33;19903;-87
2022/04/21 12:49:55;;;;;;;;;;;8.40;72.30;;;7.24;nan;95797.25;4166000;33;19910;-86
2022/04/21 12:52:38;;;;;;;;;;;8.40;72.30;;;7.25;nan;95805.19;4185306;33;19910;-87
2022/04/21 12:55:10;;;;;;;;;;;8.40;72.30;;;7.25;nan;95793.47;4208920;33;20144;-86
2022/04/21 12:57:39;;;;;;;;;;;8.40;72.30;;;7.25;nan;95793.47;4185106;33;19991;-85
2022/04/21 13:00:10;;;;;;;;;;;8.40;72.30;;;7.25;nan;95791.56;4208728;33;19902;-86
2022/04/21 13:02:38;;;;;;;;;;;8.40;72.30;;;7.22;nan;95789.38;4180877;33;19902;-87
2022/04/21 13:05:08;;;;;;;;;;;8.40;72.30;;;7.23;nan;95791.00;4159421;33;19909;-87
2022/04/21 13:07:36;;;;;;;;;;;8.40;72.30;;;7.24;nan;95792.66;4172099;33;20509;-87
2022/04/21 13:10:06;;;;;;;;;;;8.40;72.40;;;7.24;nan;95783.66;4211190;33;20168;-86
2022/04/21 13:12:36;;;;;;;;;;;8.40;72.30;;;7.25;nan;95794.28;4187790;33;20217;-87
2022/04/21 13:15:05;;;;;;;;;;;8.40;72.40;;;7.26;nan;95797.81;4211013;33;19906;-86
2022/04/21 13:17:34;;;;;;;;;;;8.40;72.30;;;7.25;nan;95799.75;4187705;33;19902;-86
2022/04/21 13:20:03;;;;;;;;;;;8.40;72.30;;;7.26;nan;95806.84;4187827;33;20240;-86
2022/04/21 13:22:33;;;;;;;;;;;8.40;72.30;;;7.27;nan;95791.31;4187618;33;19985;-87
2022/04/21 13:25:02;;;;;;;;;;;8.40;72.30;;;7.26;nan;95795.94;4187550;33;19997;-87
2022/04/21 13:28:15;;;;;;;;;;;8.40;72.30;;;7.27;nan;95789.41;4187246;33;20173;-86
2022/04/21 13:30:44;;;;;;;;;;;8.40;72.30;;;7.27;nan;95791.31;4187723;33;20041;-85
2022/04/21 13:33:23;;;;;;;;;;;8.40;72.20;;;7.26;nan;95785.06;4187761;33;20007;-86